Time;durP1;ratioP1;P1;durP2;ratioP2;P2;SDS_P1;SDS_P2;PMS_P1;PMS_P2;Temp;Humidity;BMP_temperature;BMP_pressure;BME280_temperature;BME280_humidity;BME280_pressure;Samples;Min_cycle;Max_cycle;Signal;HPM_P1;HPM_P2
2021/10/17 00:01:10;;;;;;;21.20;11.00;;;;;;;8.99;66.71;100641.17;139164;1190;108588;-80
2021/10/17 00:04:15;;;;;;;20.20;11.50;;;;;;;9.00;66.46;100639.89;139052;1189;107191;-79
2021/10/17 00:07:20;;;;;;;22.00;11.50;;;;;;;8.99;66.70;100640.16;139075;1189;108479;-80
2021/10/17 00:10:29;;;;;;;21.20;11.60;;;;;;;8.99;66.88;100639.59;139141;1189;108674;-81
2021/10/17 00:13:34;;;;;;;21.20;11.40;;;;;;;8.98;66.79;100644.09;139174;1189;107787;-81
2021/10/17 00:16:41;;;;;;;20.20;11.00;;;;;;;8.97;66.99;100642.61;139233;1190;108417;-82
2021/10/17 00:19:46;;;;;;;20.30;10.30;;;;;;;8.95;67.00;100639.61;139175;1189;108636;-81
2021/10/17 00:22:53;;;;;;;18.20;9.30;;;;;;;8.92;66.97;100641.80;139131;1190;108585;-84
2021/10/17 00:25:58;;;;;;;18.10;10.20;;;;;;;8.93;67.11;100637.83;139229;1189;108185;-88
2021/10/17 00:29:04;;;;;;;21.90;10.40;;;;;;;8.97;66.93;100640.83;139189;1189;108560;-87
2021/10/17 00:32:13;;;;;;;19.50;10.90;;;;;;;9.01;67.00;100637.65;139153;1190;108863;-84
2021/10/17 00:35:18;;;;;;;20.10;10.50;;;;;;;9.05;67.07;100637.71;139114;1190;109227;-85
2021/10/17 00:38:24;;;;;;;19.70;10.70;;;;;;;9.07;67.08;100637.89;139021;1191;108704;-85
2021/10/17 00:41:33;;;;;;;22.30;11.10;;;;;;;9.08;67.11;100635.13;139036;1190;108440;-85
2021/10/17 00:44:41;;;;;;;21.30;11.00;;;;;;;9.08;67.36;100635.48;139282;1190;108450;-86
2021/10/17 00:47:46;;;;;;;19.70;10.50;;;;;;;9.06;67.18;100633.88;139187;1189;109397;-85
2021/10/17 00:50:52;;;;;;;20.30;10.60;;;;;;;9.03;67.27;100630.02;139197;1190;108315;-85
2021/10/17 00:53:57;;;;;;;17.90;9.50;;;;;;;8.99;67.30;100627.90;139245;1190;105629;-85
2021/10/17 00:57:03;;;;;;;18.40;9.50;;;;;;;8.97;67.45;100623.50;139146;1174;108608;-85
2021/10/17 01:00:11;;;;;;;19.20;10.20;;;;;;;8.97;67.32;100620.64;139835;1190;107410;-82
2021/10/17 01:03:16;;;;;;;21.70;10.70;;;;;;;8.99;67.39;100621.09;139265;1190;108957;-82
2021/10/17 01:06:21;;;;;;;18.10;9.90;;;;;;;9.05;67.47;100622.63;139182;1190;108380;-82
2021/10/17 01:09:27;;;;;;;21.00;10.60;;;;;;;9.08;67.47;100620.76;139238;1190;107993;-83
2021/10/17 01:12:33;;;;;;;18.10;10.50;;;;;;;9.11;67.61;100623.13;139203;1189;108562;-82
2021/10/17 01:15:38;;;;;;;21.30;10.20;;;;;;;9.11;67.42;100621.00;139136;1190;108614;-82
2021/10/17 01:18:44;;;;;;;19.60;9.90;;;;;;;9.10;67.55;100620.40;139202;1190;108552;-82
2021/10/17 01:21:53;;;;;;;21.50;10.20;;;;;;;9.08;67.47;100615.44;139161;1190;108427;-84
2021/10/17 01:24:58;;;;;;;18.70;10.00;;;;;;;9.06;67.62;100611.35;139136;1190;108405;-80
2021/10/17 01:28:05;;;;;;;16.30;8.60;;;;;;;9.03;67.64;100609.61;139087;1190;108582;-81
2021/10/17 01:31:10;;;;;;;16.80;8.70;;;;;;;9.01;67.64;100609.24;139128;1190;107371;-81
2021/10/17 01:34:17;;;;;;;21.10;9.60;;;;;;;9.02;67.70;100609.70;139160;1189;108662;-83
2021/10/17 01:37:23;;;;;;;19.00;10.30;;;;;;;9.06;67.61;100603.53;139183;1189;108351;-84
2021/10/17 01:40:28;;;;;;;21.60;11.20;;;;;;;9.11;67.94;100597.23;139074;1190;108532;-85
2021/10/17 01:43:34;;;;;;;18.60;10.30;;;;;;;9.14;67.82;100595.71;139189;1189;108614;-84
2021/10/17 01:46:43;;;;;;;20.00;10.10;;;;;;;9.15;67.79;100594.22;139163;1189;108505;-84
2021/10/17 01:49:49;;;;;;;20.10;10.00;;;;;;;9.15;67.57;100597.77;139068;1190;108351;-82
2021/10/17 01:52:55;;;;;;;19.00;10.30;;;;;;;9.14;67.68;100599.27;139158;1190;108420;-82
2021/10/17 01:56:02;;;;;;;18.40;9.40;;;;;;;9.13;67.75;100597.08;139213;1189;108442;-80
2021/10/17 01:59:10;;;;;;;17.40;9.40;;;;;;;9.10;67.76;100595.55;139179;1189;108394;-81
2021/10/17 02:02:37;;;;;;;17.40;8.40;;;;;;;9.04;67.96;100599.03;139176;1190;108525;-81
2021/10/17 02:05:43;;;;;;;19.60;8.70;;;;;;;9.02;68.02;100591.73;139112;1190;108351;-82
2021/10/17 02:08:49;;;;;;;18.20;9.60;;;;;;;9.05;67.91;100591.52;138973;1190;108499;-81
2021/10/17 02:11:54;;;;;;;19.00;9.10;;;;;;;9.09;67.89;100587.98;139166;1197;107469;-79
2021/10/17 02:15:04;;;;;;;18.00;9.00;;;;;;;9.12;67.94;100586.52;138944;1190;108669;-80
2021/10/17 02:18:10;;;;;;;17.70;9.30;;;;;;;9.13;67.91;100587.44;139327;1191;108734;-82
2021/10/17 02:21:21;;;;;;;17.90;9.20;;;;;;;9.13;68.09;100588.70;139127;1190;108443;-80
2021/10/17 02:24:26;;;;;;;14.70;8.40;;;;;;;9.14;68.08;100587.91;139017;1189;108497;-82
2021/10/17 02:27:33;;;;;;;17.50;9.20;;;;;;;9.13;68.17;100586.38;139190;1190;108495;-81
2021/10/17 02:30:41;;;;;;;17.80;9.10;;;;;;;9.11;68.06;100582.00;139113;1190;108581;-81
2021/10/17 02:33:58;;;;;;;16.70;8.80;;;;;;;9.08;68.18;100580.95;139161;1189;108830;-81
2021/10/17 02:37:03;;;;;;;15.40;7.30;;;;;;;9.06;68.36;100580.46;139057;1190;108569;-85
2021/10/17 02:40:10;;;;;;;14.20;7.50;;;;;;;9.04;68.26;100580.80;138994;1190;108520;-82
2021/10/17 02:43:16;;;;;;;16.20;8.80;;;;;;;9.05;68.24;100583.38;139056;1190;108351;-85
2021/10/17 02:46:21;;;;;;;19.50;9.20;;;;;;;9.07;68.30;100583.41;139260;1190;107481;-83
2021/10/17 02:49:27;;;;;;;17.40;8.60;;;;;;;9.11;68.17;100583.27;139025;1189;108395;-82
2021/10/17 02:52:32;;;;;;;17.90;8.10;;;;;;;9.14;68.29;100576.95;139696;1190;107443;-77
2021/10/17 02:55:38;;;;;;;15.10;7.70;;;;;;;9.16;68.14;100574.44;139015;1189;108571;-83
2021/10/17 02:58:46;;;;;;;16.50;8.40;;;;;;;9.16;68.05;100578.16;139234;1190;108552;-83
2021/10/17 03:01:51;;;;;;;15.30;8.60;;;;;;;9.15;68.14;100577.57;139064;1190;108458;-83
2021/10/17 03:04:57;;;;;;;13.10;7.80;;;;;;;9.12;68.21;100580.27;139245;1189;108482;-82
2021/10/17 03:08:02;;;;;;;13.30;7.50;;;;;;;9.09;68.04;100579.49;139246;1190;108338;-83
2021/10/17 03:11:08;;;;;;;15.50;8.30;;;;;;;9.03;68.15;100581.71;139136;1189;108498;-82
2021/10/17 03:14:15;;;;;;;13.80;6.80;;;;;;;9.00;68.08;100581.79;139170;1190;109044;-81
2021/10/17 03:17:20;;;;;;;13.80;6.70;;;;;;;8.99;68.16;100580.86;139064;1190;108408;-86
2021/10/17 03:20:27;;;;;;;13.00;6.80;;;;;;;9.00;68.14;100574.00;139150;1189;108611;-83
2021/10/17 03:23:33;;;;;;;12.30;6.70;;;;;;;9.04;68.15;100572.59;139171;1190;108355;-86
2021/10/17 03:26:39;;;;;;;12.60;6.80;;;;;;;9.08;68.30;100577.61;139278;1189;107495;-86
2021/10/17 03:29:44;;;;;;;14.40;6.80;;;;;;;9.10;68.29;100579.55;139269;1190;107499;-83
2021/10/17 03:32:49;;;;;;;15.90;7.70;;;;;;;9.10;68.18;100576.21;138942;1190;108371;-82
2021/10/17 03:35:55;;;;;;;14.30;7.60;;;;;;;9.10;68.14;100576.75;139041;1173;108495;-82
2021/10/17 03:39:00;;;;;;;14.60;7.60;;;;;;;9.11;68.24;100577.20;139235;1190;108961;-80
2021/10/17 03:42:08;;;;;;;14.10;7.70;;;;;;;9.10;68.07;100572.61;139128;1189;108395;-80
2021/10/17 03:45:14;;;;;;;13.40;7.70;;;;;;;9.07;68.28;100574.89;139212;1190;108440;-81
2021/10/17 03:48:20;;;;;;;14.70;7.10;;;;;;;9.03;68.31;100574.66;139074;1189;108571;-80
2021/10/17 03:51:25;;;;;;;13.60;7.10;;;;;;;9.02;68.48;100573.33;138884;1190;108933;-80
2021/10/17 03:54:32;;;;;;;15.80;7.40;;;;;;;9.02;68.41;100576.52;139161;1189;108626;-79
2021/10/17 03:57:37;;;;;;;13.30;7.10;;;;;;;9.03;68.33;100574.82;139106;1189;106597;-84
2021/10/17 04:00:45;;;;;;;14.00;7.50;;;;;;;9.07;68.44;100578.29;139195;1189;108593;-82
2021/10/17 04:03:51;;;;;;;15.00;7.20;;;;;;;9.09;68.41;100577.87;139152;1183;108718;-81
2021/10/17 04:06:56;;;;;;;15.30;7.40;;;;;;;9.11;68.40;100575.44;139256;1190;108266;-79
2021/10/17 04:10:08;;;;;;;;;;;;;;;9.09;68.37;100573.84;139093;1189;108638;-78
2021/10/17 04:13:15;;;;;;;12.60;6.50;;;;;;;9.08;68.28;100567.70;139206;1190;108420;-80
2021/10/17 04:16:20;;;;;;;13.00;7.20;;;;;;;9.04;68.34;100571.02;139138;1189;107955;-79
2021/10/17 04:19:25;;;;;;;15.10;7.30;;;;;;;9.01;68.48;100568.45;138943;1190;109331;-80
2021/10/17 04:22:31;;;;;;;11.70;7.00;;;;;;;8.98;68.37;100567.08;139187;1189;108849;-80
2021/10/17 04:25:36;;;;;;;13.70;6.40;;;;;;;8.95;68.39;100567.77;139081;1189;108575;-81
2021/10/17 04:28:45;;;;;;;16.00;6.90;;;;;;;8.93;68.41;100569.71;139203;1189;108254;-78
2021/10/17 04:31:50;;;;;;;12.20;6.80;;;;;;;8.93;68.42;100566.17;138970;1189;108402;-81
2021/10/17 04:34:56;;;;;;;14.20;7.60;;;;;;;8.95;68.41;100566.82;139106;1189;108694;-82
2021/10/17 04:38:01;;;;;;;23.20;14.50;;;;;;;9.00;68.40;100569.04;139107;1189;108349;-80
2021/10/17 04:41:08;;;;;;;63.30;37.30;;;;;;;9.04;68.38;100571.04;139221;1190;108624;-83
2021/10/17 04:44:13;;;;;;;64.80;38.00;;;;;;;9.06;68.37;100569.32;139157;1189;108835;-80
2021/10/17 04:47:18;;;;;;;45.90;27.40;;;;;;;9.05;68.16;100575.56;139038;1189;108637;-82
2021/10/17 04:50:24;;;;;;;44.80;28.20;;;;;;;9.04;68.29;100575.96;139434;1189;108487;-81
2021/10/17 04:53:29;;;;;;;28.70;16.30;;;;;;;9.03;68.29;100573.40;139299;1189;108352;-81
2021/10/17 04:56:35;;;;;;;187.80;89.50;;;;;;;9.03;68.37;100568.46;139142;1190;108419;-83
2021/10/17 04:59:40;;;;;;;137.90;60.00;;;;;;;9.00;68.44;100572.27;139116;1190;108374;-79
2021/10/17 05:02:46;;;;;;;231.30;98.50;;;;;;;8.98;68.52;100569.59;139095;1189;108400;-79
2021/10/17 05:05:51;;;;;;;280.70;124.00;;;;;;;8.99;68.57;100563.52;139178;1190;108626;-82
2021/10/17 05:08:56;;;;;;;85.80;40.30;;;;;;;9.03;68.43;100562.41;139135;1192;108804;-82
2021/10/17 05:12:02;;;;;;;35.30;16.00;;;;;;;9.09;68.46;100560.13;139320;1190;108641;-83
2021/10/17 05:15:09;;;;;;;25.90;12.20;;;;;;;9.13;68.42;100567.93;139237;1189;108459;-78
2021/10/17 05:18:15;;;;;;;25.50;11.80;;;;;;;9.14;68.54;100566.23;139158;1189;108568;-81
2021/10/17 05:21:28;;;;;;;18.80;9.30;;;;;;;9.16;68.43;100564.15;139103;1190;108866;-82
2021/10/17 05:24:33;;;;;;;14.80;8.00;;;;;;;9.15;68.47;100564.55;139079;1190;108564;-81
2021/10/17 05:27:39;;;;;;;14.10;8.30;;;;;;;9.13;68.49;100572.70;139357;1189;108675;-81
2021/10/17 05:30:44;;;;;;;16.30;7.40;;;;;;;9.11;68.79;100571.85;139264;1189;106439;-83
2021/10/17 05:33:51;;;;;;;17.10;7.40;;;;;;;9.10;68.80;100577.98;139118;1190;108623;-82
2021/10/17 05:36:58;;;;;;;12.80;7.50;;;;;;;9.10;68.68;100582.77;139106;1190;108463;-81
2021/10/17 05:40:05;;;;;;;12.80;7.40;;;;;;;9.13;68.69;100585.73;138970;1190;108400;-82
2021/10/17 05:43:17;;;;;;;16.50;7.80;;;;;;;9.18;68.71;100587.15;139131;1183;108425;-84
2021/10/17 05:46:23;;;;;;;21.10;12.80;;;;;;;9.23;68.80;100585.68;139056;1190;108420;-81
2021/10/17 05:49:32;;;;;;;17.60;11.10;;;;;;;9.28;68.63;100586.27;139164;1190;108368;-80
2021/10/17 05:52:38;;;;;;;14.50;8.70;;;;;;;9.32;68.85;100589.48;139081;1190;108457;-81
2021/10/17 05:55:45;;;;;;;16.30;8.60;;;;;;;9.34;68.74;100596.95;139151;1190;108608;-79
2021/10/17 05:58:51;;;;;;;84.70;57.70;;;;;;;9.34;68.74;100593.04;139164;1190;108614;-81
2021/10/17 06:01:56;;;;;;;30.10;19.10;;;;;;;9.33;68.71;100587.42;139092;1184;108412;-80
2021/10/17 06:30:22;;;;;;;16.20;10.20;;;;;;;9.45;68.75;100593.31;137040;1209;648146;-79
2021/10/17 06:33:28;;;;;;;16.90;11.70;;;;;;;9.60;68.66;100597.09;138485;1196;108584;-78
2021/10/17 06:36:35;;;;;;;22.10;11.30;;;;;;;9.67;68.63;100597.02;138182;1196;108412;-78
2021/10/17 06:39:41;;;;;;;19.10;12.80;;;;;;;9.70;68.82;100601.40;138443;1196;108608;-78
2021/10/17 06:42:50;;;;;;;28.30;18.90;;;;;;;9.71;68.80;100606.05;138468;1196;108550;-77
2021/10/17 06:46:14;;;;;;;24.70;15.30;;;;;;;9.77;68.91;100605.19;138466;1202;108784;-75
2021/10/17 06:49:20;;;;;;;24.30;15.10;;;;;;;9.84;68.84;100602.05;138465;1202;108823;-74
2021/10/17 06:52:26;;;;;;;20.00;13.00;;;;;;;9.90;68.76;100600.95;138248;1203;108567;-76
2021/10/17 06:55:32;;;;;;;29.20;17.40;;;;;;;9.96;68.64;100602.75;138194;1196;108580;-76
2021/10/17 06:58:38;;;;;;;20.40;14.40;;;;;;;9.98;68.45;100601.72;138459;1196;108491;-78
2021/10/17 07:01:44;;;;;;;20.40;11.70;;;;;;;9.99;68.44;100601.20;138394;1196;108267;-79
2021/10/17 07:04:50;;;;;;;21.50;14.10;;;;;;;10.01;68.32;100605.24;138541;1196;108576;-80
2021/10/17 07:07:55;;;;;;;22.10;14.70;;;;;;;10.04;68.47;100602.02;138545;1196;108437;-82
2021/10/17 07:11:02;;;;;;;24.50;16.10;;;;;;;10.05;68.34;100604.74;138742;1196;108697;-82
2021/10/17 07:14:27;;;;;;;27.10;19.20;;;;;;;10.05;68.29;100610.13;138759;1197;108115;-85
2021/10/17 07:17:53;;;;;;;17.70;10.40;;;;;;;10.07;68.15;100600.81;138827;1195;108831;-84
2021/10/17 07:20:59;;;;;;;22.00;10.90;;;;;;;10.09;68.32;100603.52;138759;1194;108595;-82
2021/10/17 07:24:05;;;;;;;16.20;9.40;;;;;;;10.13;67.84;100604.91;138811;1192;108445;-80
2021/10/17 07:27:10;;;;;;;17.80;9.40;;;;;;;10.20;67.96;100601.36;138874;1194;108623;-80
2021/10/17 07:30:17;;;;;;;15.50;8.40;;;;;;;10.28;67.91;100607.27;139012;1193;108726;-81
2021/10/17 07:33:22;;;;;;;14.90;8.20;;;;;;;10.34;67.62;100607.95;138767;1192;108209;-74
2021/10/17 07:36:28;;;;;;;14.40;8.20;;;;;;;10.40;67.74;100607.40;138686;1193;108398;-76
2021/10/17 07:39:43;;;;;;;13.40;7.90;;;;;;;10.46;67.55;100610.30;138980;1193;108582;-81
2021/10/17 07:42:49;;;;;;;13.90;7.90;;;;;;;10.50;67.81;100611.48;139551;1192;108090;-78
2021/10/17 07:46:02;;;;;;;14.40;7.90;;;;;;;10.54;67.50;100609.70;139369;1193;108472;-83
2021/10/17 07:49:08;;;;;;;12.30;6.90;;;;;;;10.56;67.16;100605.60;139234;1192;107401;-83
2021/10/17 07:52:14;;;;;;;15.50;8.20;;;;;;;10.59;67.31;100606.04;141609;1192;108405;-82
2021/10/17 07:55:19;;;;;;;24.40;10.60;;;;;;;10.60;66.88;100611.27;139019;1192;108841;-83
2021/10/17 07:58:32;;;;;;;15.70;9.30;;;;;;;10.61;67.13;100609.35;138984;1193;108538;-86
2021/10/17 08:01:37;;;;;;;40.70;19.90;;;;;;;10.64;67.12;100613.45;139136;1192;108414;-86
2021/10/17 08:05:02;;;;;;;71.80;30.20;;;;;;;10.62;66.87;100619.63;138900;1193;108568;-82
2021/10/17 08:08:07;;;;;;;61.90;29.40;;;;;;;10.62;66.71;100622.46;138789;1193;108393;-83
2021/10/17 08:11:15;;;;;;;67.80;35.00;;;;;;;10.62;66.74;100625.44;138807;1193;107424;-83
2021/10/17 08:14:21;;;;;;;53.10;31.20;;;;;;;10.64;66.65;100624.08;138968;1193;108570;-83
2021/10/17 08:17:29;;;;;;;38.20;23.30;;;;;;;10.67;66.56;100625.61;139005;1193;108485;-81
2021/10/17 08:20:39;;;;;;;25.40;14.50;;;;;;;10.67;66.45;100627.38;138988;1193;108364;-81
2021/10/17 08:23:45;;;;;;;31.40;17.30;;;;;;;10.65;66.21;100630.07;138969;1193;108519;-82
2021/10/17 08:26:51;;;;;;;34.90;19.30;;;;;;;10.64;66.62;100625.80;138877;1193;108015;-81
2021/10/17 08:30:01;;;;;;;;;;;;;;;10.67;66.37;100628.07;139502;1191;108478;-82
2021/10/17 08:33:07;;;;;;;38.60;20.30;;;;;;;10.67;66.22;100626.95;139170;1193;108605;-83
2021/10/17 08:36:14;;;;;;;51.00;26.40;;;;;;;10.65;66.21;100629.15;139023;1193;108376;-84
2021/10/17 08:39:20;;;;;;;41.10;21.20;;;;;;;10.65;65.94;100628.27;139098;1192;108594;-84
2021/10/17 08:42:26;;;;;;;52.20;30.70;;;;;;;10.66;66.25;100628.48;139032;1193;108696;-85
2021/10/17 08:45:34;;;;;;;41.40;22.30;;;;;;;10.67;66.21;100627.86;139013;1183;108535;-85
2021/10/17 08:48:42;;;;;;;31.00;17.10;;;;;;;10.68;66.37;100629.76;139026;1193;108577;-84
2021/10/17 08:51:48;;;;;;;43.10;23.70;;;;;;;10.70;66.26;100630.85;139342;1193;108364;-85
2021/10/17 08:54:53;;;;;;;22.60;13.00;;;;;;;10.75;66.42;100630.15;138847;1192;107439;-80
2021/10/17 08:57:59;;;;;;;44.60;23.20;;;;;;;10.78;66.24;100634.07;138942;1192;108617;-82
2021/10/17 09:01:13;;;;;;;124.10;63.10;;;;;;;10.75;65.74;100637.30;138954;1184;107392;-83
2021/10/17 09:04:29;;;;;;;123.10;65.70;;;;;;;10.69;66.27;100642.05;138741;1193;108788;-83
2021/10/17 09:07:57;;;;;;;50.20;27.30;;;;;;;10.74;66.29;100636.81;139052;1193;108599;-86
2021/10/17 09:11:14;;;;;;;146.70;82.50;;;;;;;10.79;66.51;100632.73;139292;1193;108734;-89
2021/10/17 09:14:22;;;;;;;116.90;64.40;;;;;;;10.85;66.28;100636.01;139024;1193;108362;-86
2021/10/17 09:17:28;;;;;;;132.90;71.40;;;;;;;10.89;66.18;100634.17;139148;1192;108461;-84
2021/10/17 09:20:34;;;;;;;162.90;89.50;;;;;;;10.91;66.27;100637.13;139161;1193;109353;-89
2021/10/17 09:23:42;;;;;;;51.70;29.70;;;;;;;10.97;66.44;100633.59;139026;1179;107576;-87
2021/10/17 09:27:15;;;;;;;95.90;50.20;;;;;;;11.06;66.47;100636.52;139070;1192;108405;-87
2021/10/17 09:30:20;;;;;;;111.30;61.40;;;;;;;11.11;66.16;100632.91;139135;1192;108498;-86
2021/10/17 09:33:26;;;;;;;62.90;35.40;;;;;;;11.14;66.09;100641.40;139089;1192;107424;-87
2021/10/17 09:36:34;;;;;;;141.30;77.00;;;;;;;11.17;66.57;100643.55;139015;1193;107200;-84
2021/10/17 09:39:46;;;;;;;150.00;82.70;;;;;;;11.17;66.10;100642.64;138946;1193;108444;-82
2021/10/17 09:43:13;;;;;;;93.90;49.90;;;;;;;11.16;66.18;100641.59;138953;1184;107343;-86
2021/10/17 09:46:25;;;;;;;72.50;40.90;;;;;;;11.18;66.35;100638.85;139011;1187;107432;-90
2021/10/17 09:49:30;;;;;;;39.60;24.00;;;;;;;11.25;66.22;100638.87;139041;1192;108550;-82
2021/10/17 09:52:36;;;;;;;36.90;20.90;;;;;;;11.33;66.43;100633.15;139055;1193;108435;-84
2021/10/17 09:55:53;;;;;;;72.20;44.10;;;;;;;11.39;66.27;100636.23;138954;1193;108570;-82
2021/10/17 09:59:00;;;;;;;48.20;29.40;;;;;;;11.49;66.20;100632.86;138959;1193;108367;-85
2021/10/17 10:02:10;;;;;;;43.00;26.00;;;;;;;11.55;66.39;100634.38;139048;1193;108280;-86
2021/10/17 10:05:24;;;;;;;87.00;52.80;;;;;;;11.60;66.24;100635.46;138917;1193;108381;-84
2021/10/17 10:08:31;;;;;;;62.10;37.10;;;;;;;11.63;66.12;100636.70;139117;1192;107810;-86
2021/10/17 10:11:38;;;;;;;63.20;37.50;;;;;;;11.62;66.03;100639.59;138858;1193;108426;-85
2021/10/17 10:14:45;;;;;;;48.20;28.00;;;;;;;11.63;66.08;100634.66;138978;1199;107495;-89
2021/10/17 10:17:51;;;;;;;74.50;42.50;;;;;;;11.66;66.17;100632.30;139055;1192;106137;-86
2021/10/17 10:20:57;;;;;;;42.70;25.10;;;;;;;11.65;66.00;100632.34;139172;1192;107070;-87
2021/10/17 10:24:05;;;;;;;34.80;22.10;;;;;;;11.67;66.15;100631.93;139018;1192;107538;-86
2021/10/17 10:27:11;;;;;;;46.10;25.30;;;;;;;11.70;66.12;100628.99;139024;1193;107442;-87
2021/10/17 10:30:31;;;;;;;31.90;17.80;;;;;;;11.75;66.23;100628.52;139034;1193;108567;-90
2021/10/17 10:33:44;;;;;;;43.80;26.50;;;;;;;11.77;65.96;100624.52;138975;1193;107423;-85
2021/10/17 10:36:51;;;;;;;33.60;18.70;;;;;;;11.80;65.71;100625.38;138971;1193;106445;-89
2021/10/17 10:40:17;;;;;;;43.30;24.30;;;;;;;11.84;65.89;100623.55;139069;1193;107454;-88
2021/10/17 10:43:36;;;;;;;55.90;29.40;;;;;;;11.85;65.56;100617.43;138972;1193;108478;-84
2021/10/17 10:46:41;;;;;;;39.30;22.20;;;;;;;11.83;65.66;100620.80;138992;1193;108562;-87
2021/10/17 10:49:50;;;;;;;35.30;19.60;;;;;;;11.83;65.50;100615.61;138998;1193;107427;-85
2021/10/17 10:52:55;;;;;;;59.20;30.70;;;;;;;11.85;65.54;100610.59;139146;1193;107366;-85
2021/10/17 10:56:01;;;;;;;53.20;27.30;;;;;;;11.88;65.50;100606.98;138942;1184;108378;-86
2021/10/17 10:59:07;;;;;;;103.80;49.00;;;;;;;11.86;65.39;100604.76;138921;1184;108419;-87
2021/10/17 11:02:18;;;;;;;55.90;28.30;;;;;;;11.93;65.28;100606.80;138973;1193;108864;-88
2021/10/17 11:05:24;;;;;;;66.70;31.90;;;;;;;12.01;65.21;100603.64;138994;1199;108534;-86
2021/10/17 11:08:29;;;;;;;145.30;60.00;;;;;;;12.07;65.21;100600.22;138943;1192;108371;-85
2021/10/17 11:11:41;;;;;;;188.70;96.00;;;;;;;12.11;65.10;100594.06;139013;1193;109365;-84
2021/10/17 11:14:59;;;;;;;154.80;83.40;;;;;;;12.15;64.91;100591.70;138999;1192;108375;-86
2021/10/17 11:18:06;;;;;;;74.60;40.80;;;;;;;12.17;64.78;100594.92;138791;1192;107442;-84
2021/10/17 11:21:12;;;;;;;97.00;53.00;;;;;;;12.16;64.60;100587.92;138868;1193;108413;-83
2021/10/17 11:24:21;;;;;;;75.70;44.10;;;;;;;12.12;64.67;100589.39;138836;1192;108217;-82
2021/10/17 11:27:27;;;;;;;56.80;35.50;;;;;;;12.14;64.64;100585.80;138780;1192;108458;-83
2021/10/17 11:30:34;;;;;;;58.00;32.40;;;;;;;12.14;64.65;100583.94;138813;1195;108392;-84
2021/10/17 11:33:42;;;;;;;41.60;25.60;;;;;;;12.15;64.44;100583.30;138837;1192;108339;-79
2021/10/17 11:36:47;;;;;;;68.60;41.80;;;;;;;12.16;64.24;100577.05;138782;1193;108393;-79
2021/10/17 11:39:59;;;;;;;82.90;50.70;;;;;;;12.15;64.08;100573.53;138817;1192;108487;-84
2021/10/17 11:43:06;;;;;;;49.80;30.40;;;;;;;12.16;64.01;100571.61;139134;1192;108591;-81
2021/10/17 11:46:14;;;;;;;77.40;44.90;;;;;;;12.17;64.17;100567.77;138798;1184;108551;-78
2021/10/17 11:49:22;;;;;;;34.40;21.60;;;;;;;12.17;64.03;100563.16;138800;1184;108182;-84
2021/10/17 11:52:27;;;;;;;123.70;69.00;;;;;;;12.19;63.99;100567.44;139076;1192;108261;-78
2021/10/17 11:55:39;;;;;;;111.50;59.70;;;;;;;12.16;63.91;100567.36;139567;1192;108548;-82
2021/10/17 11:58:44;;;;;;;84.80;48.20;;;;;;;12.18;64.15;100571.48;139455;1191;108366;-83
2021/10/17 12:01:50;;;;;;;75.50;42.80;;;;;;;12.22;64.04;100567.87;139324;1192;108378;-83
2021/10/17 12:04:55;;;;;;;76.80;45.10;;;;;;;12.21;63.62;100564.45;139104;1183;108620;-83
2021/10/17 12:08:01;;;;;;;56.80;34.60;;;;;;;12.19;63.70;100564.07;139067;1193;108549;-85
2021/10/17 12:11:08;;;;;;;28.20;17.00;;;;;;;12.17;63.71;100557.33;139328;1183;108369;-81
2021/10/17 12:14:30;;;;;;;51.70;31.60;;;;;;;12.14;63.58;100558.52;139199;1191;107532;-82
2021/10/17 12:17:37;;;;;;;47.00;27.20;;;;;;;12.11;63.41;100559.13;139275;1183;108434;-81
2021/10/17 12:20:43;;;;;;;22.70;15.60;;;;;;;12.10;63.51;100558.14;139157;1196;109035;-81
2021/10/17 12:23:50;;;;;;;22.90;12.40;;;;;;;12.12;63.42;100554.23;139293;1192;108401;-79
2021/10/17 12:27:07;;;;;;;20.10;12.10;;;;;;;12.15;63.38;100551.58;139054;1190;108661;-79
2021/10/17 12:30:15;;;;;;;20.30;12.00;;;;;;;12.17;63.46;100552.98;139029;1193;109018;-81
2021/10/17 12:33:35;;;;;;;19.10;11.70;;;;;;;12.16;63.42;100550.77;139131;1190;108425;-81
2021/10/17 12:36:42;;;;;;;20.00;10.80;;;;;;;12.15;63.25;100549.30;139115;1192;108639;-84
2021/10/17 12:39:48;;;;;;;19.80;12.00;;;;;;;12.14;63.44;100546.58;139171;1183;107365;-81
2021/10/17 12:43:03;;;;;;;17.00;9.90;;;;;;;12.15;63.37;100547.36;139272;1193;108449;-82
2021/10/17 12:46:14;;;;;;;13.70;9.10;;;;;;;12.15;63.23;100541.48;139168;1189;108350;-84
2021/10/17 12:49:19;;;;;;;12.70;8.60;;;;;;;12.15;63.30;100534.91;139163;1193;108367;-83
2021/10/17 12:52:32;;;;;;;13.90;8.80;;;;;;;12.14;63.25;100533.40;139315;1192;108724;-83
2021/10/17 12:55:37;;;;;;;;;;;;;;;12.19;63.25;100533.94;139191;1193;108597;-82
2021/10/17 12:58:43;;;;;;;14.50;9.50;;;;;;;12.26;63.09;100530.58;139371;1193;108436;-82
2021/10/17 13:02:04;;;;;;;14.10;8.50;;;;;;;12.27;62.94;100532.95;139098;1193;108378;-80
2021/10/17 13:05:18;;;;;;;14.10;9.40;;;;;;;12.26;63.03;100524.98;139175;1191;108430;-80
2021/10/17 13:08:26;;;;;;;14.30;9.80;;;;;;;12.22;62.83;100525.77;139215;1193;108456;-81
2021/10/17 13:11:38;;;;;;;14.50;9.20;;;;;;;12.16;62.79;100529.91;140244;1191;108457;-79
2021/10/17 13:14:58;;;;;;;14.20;9.30;;;;;;;12.11;62.90;100529.35;139331;1193;108711;-86
2021/10/17 13:18:06;;;;;;;16.50;10.00;;;;;;;12.08;62.63;100529.21;139106;1193;108559;-81
2021/10/17 13:21:11;;;;;;;14.90;10.60;;;;;;;12.04;62.74;100521.72;139137;1189;109273;-82
2021/10/17 13:24:17;;;;;;;14.90;10.10;;;;;;;12.00;62.72;100522.50;138836;1193;108567;-83
2021/10/17 13:27:22;;;;;;;14.20;9.30;;;;;;;12.00;62.65;100517.52;138882;1193;108452;-88
2021/10/17 13:30:29;;;;;;;15.40;9.30;;;;;;;12.00;62.69;100520.56;138832;1184;108393;-84
2021/10/17 13:33:35;;;;;;;13.30;9.00;;;;;;;11.97;62.96;100517.43;139268;1193;108487;-87
2021/10/17 13:36:40;;;;;;;12.60;9.00;;;;;;;11.94;62.74;100517.71;139636;1199;108309;-88
2021/10/17 13:39:46;;;;;;;14.70;9.70;;;;;;;11.92;62.64;100514.92;138941;1193;108513;-80
2021/10/17 13:42:52;;;;;;;17.00;10.10;;;;;;;11.88;62.64;100515.30;138924;1193;108181;-79
2021/10/17 13:45:57;;;;;;;15.50;10.60;;;;;;;11.82;62.66;100508.95;139373;1192;108451;-79
2021/10/17 13:49:03;;;;;;;18.80;9.70;;;;;;;11.77;62.66;100507.12;138969;1192;108446;-76
2021/10/17 13:52:09;;;;;;;16.20;10.80;;;;;;;11.75;62.43;100509.04;138886;1184;108372;-79
2021/10/17 13:55:14;;;;;;;15.50;10.10;;;;;;;11.75;62.73;100504.80;139301;1193;109279;-79
2021/10/17 13:58:20;;;;;;;14.90;10.10;;;;;;;11.75;62.60;100505.49;138812;1184;109224;-79
2021/10/17 14:01:25;;;;;;;15.00;10.00;;;;;;;11.75;62.53;100503.89;138840;1192;107410;-79
2021/10/17 14:04:31;;;;;;;14.40;9.60;;;;;;;11.76;62.40;100500.07;138923;1193;108458;-78
2021/10/17 14:07:37;;;;;;;12.90;9.10;;;;;;;11.76;62.45;100494.91;138827;1184;108499;-79
2021/10/17 14:10:42;;;;;;;12.20;9.00;;;;;;;11.74;62.50;100492.45;139144;1193;108406;-77
2021/10/17 14:13:48;;;;;;;12.90;8.90;;;;;;;11.70;62.29;100487.55;138886;1193;106331;-79
2021/10/17 14:16:54;;;;;;;12.90;8.60;;;;;;;11.63;62.16;100488.34;139715;1193;108607;-80
2021/10/17 14:20:00;;;;;;;12.90;8.60;;;;;;;11.57;62.37;100487.35;139599;1184;106531;-80
2021/10/17 14:23:06;;;;;;;10.80;8.20;;;;;;;11.51;62.21;100484.55;139620;1193;108497;-79
2021/10/17 14:26:13;;;;;;;12.40;8.80;;;;;;;11.47;62.23;100481.08;138939;1192;107514;-78
2021/10/17 14:29:19;;;;;;;13.10;8.60;;;;;;;11.46;62.21;100482.66;139190;1193;108475;-79